sensor_id;sensor_type;location;lat;lon;timestamp;temperature;humidity
13470;DHT22;6807;48.682;9.032;2022-09-27T00:03:31;8.70;99.90
13470;DHT22;6807;48.682;9.032;2022-09-27T00:06:17;8.70;99.90
13470;DHT22;6807;48.682;9.032;2022-09-27T00:08:46;8.60;99.90
13470;DHT22;6807;48.682;9.032;2022-09-27T00:11:28;8.70;99.90
13470;DHT22;6807;48.682;9.032;2022-09-27T00:13:57;8.70;99.90
13470;DHT22;6807;48.682;9.032;2022-09-27T00:16:26;8.70;99.90
13470;DHT22;6807;48.682;9.032;2022-09-27T00:18:57;8.60;99.90
13470;DHT22;6807;48.682;9.032;2022-09-27T00:21:24;8.70;99.90
13470;DHT22;6807;48.682;9.032;2022-09-27T00:33:57;8.70;99.90
13470;DHT22;6807;48.682;9.032;2022-09-27T00:36:24;8.70;99.90
13470;DHT22;6807;48.682;9.032;2022-09-27T00:42:14;8.70;99.90
13470;DHT22;6807;48.682;9.032;2022-09-27T00:45:08;8.70;99.90
13470;DHT22;6807;48.682;9.032;2022-09-27T00:47:41;8.70;99.90
13470;DHT22;6807;48.682;9.032;2022-09-27T00:53:26;8.70;99.90
13470;DHT22;6807;48.682;9.032;2022-09-27T00:55:57;8.70;99.90
13470;DHT22;6807;48.682;9.032;2022-09-27T00:58:29;8.70;99.90
13470;DHT22;6807;48.682;9.032;2022-09-27T01:01:16;8.60;99.90
13470;DHT22;6807;48.682;9.032;2022-09-27T01:03:47;8.60;99.90
13470;DHT22;6807;48.682;9.032;2022-09-27T01:06:18;8.60;99.90
13470;DHT22;6807;48.682;9.032;2022-09-27T01:08:47;8.60;99.90
13470;DHT22;6807;48.682;9.032;2022-09-27T01:11:24;8.70;99.90
13470;DHT22;6807;48.682;9.032;2022-09-27T01:17:34;8.80;99.90
13470;DHT22;6807;48.682;9.032;2022-09-27T01:20:27;8.70;99.90
13470;DHT22;6807;48.682;9.032;2022-09-27T01:23:14;8.70;99.90
13470;DHT22;6807;48.682;9.032;2022-09-27T01:25:56;8.80;99.90
13470;DHT22;6807;48.682;9.032;2022-09-27T01:32:16;8.80;99.90
13470;DHT22;6807;48.682;9.032;2022-09-27T01:35:01;8.80;99.90
13470;DHT22;6807;48.682;9.032;2022-09-27T01:40:55;8.90;99.90
13470;DHT22;6807;48.682;9.032;2022-09-27T01:47:06;8.90;99.90
13470;DHT22;6807;48.682;9.032;2022-09-27T01:49:52;9.00;99.90
13470;DHT22;6807;48.682;9.032;2022-09-27T01:52:25;9.00;99.90
13470;DHT22;6807;48.682;9.032;2022-09-27T01:54:57;9.00;99.90
13470;DHT22;6807;48.682;9.032;2022-09-27T01:57:36;9.00;99.90
13470;DHT22;6807;48.682;9.032;2022-09-27T02:00:08;9.00;99.90
13470;DHT22;6807;48.682;9.032;2022-09-27T02:02:38;9.00;99.90
13470;DHT22;6807;48.682;9.032;2022-09-27T02:05:09;9.00;99.90
13470;DHT22;6807;48.682;9.032;2022-09-27T02:07:43;9.00;99.90
13470;DHT22;6807;48.682;9.032;2022-09-27T02:10:16;9.00;99.90
13470;DHT22;6807;48.682;9.032;2022-09-27T02:42:57;8.80;99.90
13470;DHT22;6807;48.682;9.032;2022-09-27T05:08:32;8.30;99.90
13470;DHT22;6807;48.682;9.032;2022-09-27T09:44:06;16.10;99.90
13470;DHT22;6807;48.682;9.032;2022-09-27T10:14:21;14.60;99.90
13470;DHT22;6807;48.682;9.032;2022-09-27T10:20:21;12.90;99.90
13470;DHT22;6807;48.682;9.032;2022-09-27T10:22:57;12.90;99.90
13470;DHT22;6807;48.682;9.032;2022-09-27T10:28:50;11.50;99.90
13470;DHT22;6807;48.682;9.032;2022-09-27T10:31:45;11.50;99.90
13470;DHT22;6807;48.682;9.032;2022-09-27T10:34:40;12.40;99.90
13470;DHT22;6807;48.682;9.032;2022-09-27T10:37:20;12.50;99.90
13470;DHT22;6807;48.682;9.032;2022-09-27T10:40:27;12.80;99.90
13470;DHT22;6807;48.682;9.032;2022-09-27T11:04:41;12.30;99.90
13470;DHT22;6807;48.682;9.032;2022-09-27T11:07:35;12.60;99.90
13470;DHT22;6807;48.682;9.032;2022-09-27T11:13:15;16.30;99.90
13470;DHT22;6807;48.682;9.032;2022-09-27T11:15:58;14.70;99.90
13470;DHT22;6807;48.682;9.032;2022-09-27T11:18:39;15.00;99.90
13470;DHT22;6807;48.682;9.032;2022-09-27T11:21:20;15.30;99.90
13470;DHT22;6807;48.682;9.032;2022-09-27T11:23:59;15.10;99.90
13470;DHT22;6807;48.682;9.032;2022-09-27T11:26:40;13.50;99.90
13470;DHT22;6807;48.682;9.032;2022-09-27T11:29:21;13.10;99.90
13470;DHT22;6807;48.682;9.032;2022-09-27T11:32:03;12.30;99.90
13470;DHT22;6807;48.682;9.032;2022-09-27T11:34:57;12.00;99.90
13470;DHT22;6807;48.682;9.032;2022-09-27T11:37:36;11.50;99.90
13470;DHT22;6807;48.682;9.032;2022-09-27T11:40:30;11.90;99.90
13470;DHT22;6807;48.682;9.032;2022-09-27T11:43:26;13.40;99.90
13470;DHT22;6807;48.682;9.032;2022-09-27T11:46:00;13.20;99.90
13470;DHT22;6807;48.682;9.032;2022-09-27T11:48:46;12.80;99.90
13470;DHT22;6807;48.682;9.032;2022-09-27T11:51:37;12.00;99.90
13470;DHT22;6807;48.682;9.032;2022-09-27T11:54:20;11.60;99.90
13470;DHT22;6807;48.682;9.032;2022-09-27T11:56:54;11.60;99.90
13470;DHT22;6807;48.682;9.032;2022-09-27T11:59:48;11.20;99.90
13470;DHT22;6807;48.682;9.032;2022-09-27T12:05:47;10.80;99.90
13470;DHT22;6807;48.682;9.032;2022-09-27T12:08:32;10.70;99.90
13470;DHT22;6807;48.682;9.032;2022-09-27T12:11:09;10.50;99.90
13470;DHT22;6807;48.682;9.032;2022-09-27T12:13:42;10.50;99.90
13470;DHT22;6807;48.682;9.032;2022-09-27T12:16:24;10.30;99.90
13470;DHT22;6807;48.682;9.032;2022-09-27T12:18:55;10.50;99.90
13470;DHT22;6807;48.682;9.032;2022-09-27T12:24:48;10.00;99.90
13470;DHT22;6807;48.682;9.032;2022-09-27T12:27:33;9.90;99.90
13470;DHT22;6807;48.682;9.032;2022-09-27T12:30:12;9.70;99.90
13470;DHT22;6807;48.682;9.032;2022-09-27T12:32:48;9.80;99.90
13470;DHT22;6807;48.682;9.032;2022-09-27T12:35:20;10.00;99.90
13470;DHT22;6807;48.682;9.032;2022-09-27T12:37:52;10.20;99.90
13470;DHT22;6807;48.682;9.032;2022-09-27T12:40:26;10.30;99.90
13470;DHT22;6807;48.682;9.032;2022-09-27T12:43:06;10.30;99.90
13470;DHT22;6807;48.682;9.032;2022-09-27T12:45:43;10.30;99.90
13470;DHT22;6807;48.682;9.032;2022-09-27T12:48:33;10.30;99.90
13470;DHT22;6807;48.682;9.032;2022-09-27T12:51:07;10.20;99.90
13470;DHT22;6807;48.682;9.032;2022-09-27T12:53:58;10.00;99.90
13470;DHT22;6807;48.682;9.032;2022-09-27T12:56:45;10.20;99.90
13470;DHT22;6807;48.682;9.032;2022-09-27T12:59:24;10.50;99.90
13470;DHT22;6807;48.682;9.032;2022-09-27T13:02:10;10.50;99.90
13470;DHT22;6807;48.682;9.032;2022-09-27T13:04:55;10.60;99.90
13470;DHT22;6807;48.682;9.032;2022-09-27T13:07:35;10.50;99.90
13470;DHT22;6807;48.682;9.032;2022-09-27T13:10:39;10.60;99.90
13470;DHT22;6807;48.682;9.032;2022-09-27T13:13:14;10.50;99.90
13470;DHT22;6807;48.682;9.032;2022-09-27T13:15:56;10.40;99.90
13470;DHT22;6807;48.682;9.032;2022-09-27T13:18:56;10.30;99.90
13470;DHT22;6807;48.682;9.032;2022-09-27T13:21:54;10.30;99.90
13470;DHT22;6807;48.682;9.032;2022-09-27T13:24:42;10.40;99.90
13470;DHT22;6807;48.682;9.032;2022-09-27T13:27:39;10.40;99.90
13470;DHT22;6807;48.682;9.032;2022-09-27T13:33:40;12.40;99.90
13470;DHT22;6807;48.682;9.032;2022-09-27T13:42:24;12.30;99.90
13470;DHT22;6807;48.682;9.032;2022-09-27T13:45:19;12.40;99.90
13470;DHT22;6807;48.682;9.032;2022-09-27T13:47:56;12.10;99.90
13470;DHT22;6807;48.682;9.032;2022-09-27T13:50:31;11.70;99.90
13470;DHT22;6807;48.682;9.032;2022-09-27T13:53:06;11.50;99.90
13470;DHT22;6807;48.682;9.032;2022-09-27T13:55:42;11.40;99.90
13470;DHT22;6807;48.682;9.032;2022-09-27T13:58:37;11.00;99.90
13470;DHT22;6807;48.682;9.032;2022-09-27T14:01:16;10.80;99.90
13470;DHT22;6807;48.682;9.032;2022-09-27T14:03:57;10.90;99.90
13470;DHT22;6807;48.682;9.032;2022-09-27T14:06:33;10.90;99.90
13470;DHT22;6807;48.682;9.032;2022-09-27T14:09:06;10.80;99.90
13470;DHT22;6807;48.682;9.032;2022-09-27T14:11:42;10.80;99.90
13470;DHT22;6807;48.682;9.032;2022-09-27T14:14:15;10.90;99.90
13470;DHT22;6807;48.682;9.032;2022-09-27T14:16:44;11.00;99.90
13470;DHT22;6807;48.682;9.032;2022-09-27T14:19:14;11.10;99.90
13470;DHT22;6807;48.682;9.032;2022-09-27T14:21:52;11.00;99.90
13470;DHT22;6807;48.682;9.032;2022-09-27T14:24:30;11.80;99.90
13470;DHT22;6807;48.682;9.032;2022-09-27T14:27:29;11.80;99.90
13470;DHT22;6807;48.682;9.032;2022-09-27T14:30:19;10.50;99.90
13470;DHT22;6807;48.682;9.032;2022-09-27T14:33:24;11.50;99.90
13470;DHT22;6807;48.682;9.032;2022-09-27T14:36:14;11.60;99.90
13470;DHT22;6807;48.682;9.032;2022-09-27T14:39:11;12.70;99.90
13470;DHT22;6807;48.682;9.032;2022-09-27T14:41:42;14.10;99.90
13470;DHT22;6807;48.682;9.032;2022-09-27T14:44:15;13.50;99.90
13470;DHT22;6807;48.682;9.032;2022-09-27T14:46:43;12.80;99.90
13470;DHT22;6807;48.682;9.032;2022-09-27T14:49:18;12.60;99.90
13470;DHT22;6807;48.682;9.032;2022-09-27T14:55:24;12.80;99.90
13470;DHT22;6807;48.682;9.032;2022-09-27T15:04:39;14.00;99.90
13470;DHT22;6807;48.682;9.032;2022-09-27T15:07:11;13.50;99.90
13470;DHT22;6807;48.682;9.032;2022-09-27T15:09:39;14.00;99.90
13470;DHT22;6807;48.682;9.032;2022-09-27T15:12:10;13.60;99.90
13470;DHT22;6807;48.682;9.032;2022-09-27T15:14:41;13.30;99.90
13470;DHT22;6807;48.682;9.032;2022-09-27T15:17:16;12.90;99.90
13470;DHT22;6807;48.682;9.032;2022-09-27T15:20:01;12.30;99.90
13470;DHT22;6807;48.682;9.032;2022-09-27T15:22:33;11.90;99.90
13470;DHT22;6807;48.682;9.032;2022-09-27T15:25:10;11.50;99.90
13470;DHT22;6807;48.682;9.032;2022-09-27T15:27:48;11.30;99.90
13470;DHT22;6807;48.682;9.032;2022-09-27T15:30:18;11.00;99.90
13470;DHT22;6807;48.682;9.032;2022-09-27T15:32:51;10.60;99.90
13470;DHT22;6807;48.682;9.032;2022-09-27T15:35:23;10.60;99.90
13470;DHT22;6807;48.682;9.032;2022-09-27T15:37:50;10.50;99.90
13470;DHT22;6807;48.682;9.032;2022-09-27T15:43:28;10.50;99.90
13470;DHT22;6807;48.682;9.032;2022-09-27T15:45:57;10.50;99.90
13470;DHT22;6807;48.682;9.032;2022-09-27T15:48:27;10.40;99.90
13470;DHT22;6807;48.682;9.032;2022-09-27T15:50:54;10.50;99.90
13470;DHT22;6807;48.682;9.032;2022-09-27T15:53:41;10.50;99.90
13470;DHT22;6807;48.682;9.032;2022-09-27T15:56:19;10.70;99.90
13470;DHT22;6807;48.682;9.032;2022-09-27T15:58:51;10.80;99.90
13470;DHT22;6807;48.682;9.032;2022-09-27T16:01:26;10.80;99.90
13470;DHT22;6807;48.682;9.032;2022-09-27T16:04:02;10.70;99.90
13470;DHT22;6807;48.682;9.032;2022-09-27T16:06:31;10.60;99.90
13470;DHT22;6807;48.682;9.032;2022-09-27T16:09:08;10.60;99.90
13470;DHT22;6807;48.682;9.032;2022-09-27T16:11:35;10.40;99.90
13470;DHT22;6807;48.682;9.032;2022-09-27T16:14:04;10.30;99.90
13470;DHT22;6807;48.682;9.032;2022-09-27T16:16:31;10.30;99.90
13470;DHT22;6807;48.682;9.032;2022-09-27T16:19:01;10.10;99.90
13470;DHT22;6807;48.682;9.032;2022-09-27T16:21:28;10.00;99.90
13470;DHT22;6807;48.682;9.032;2022-09-27T16:23:56;9.90;99.90
13470;DHT22;6807;48.682;9.032;2022-09-27T16:26:23;9.80;99.90
13470;DHT22;6807;48.682;9.032;2022-09-27T16:28:51;9.70;99.90
13470;DHT22;6807;48.682;9.032;2022-09-27T16:31:19;9.70;99.90
13470;DHT22;6807;48.682;9.032;2022-09-27T16:33:47;9.60;99.90
13470;DHT22;6807;48.682;9.032;2022-09-27T16:36:15;9.60;99.90
13470;DHT22;6807;48.682;9.032;2022-09-27T16:38:47;10.40;99.90
13470;DHT22;6807;48.682;9.032;2022-09-27T16:41:32;9.50;99.90
13470;DHT22;6807;48.682;9.032;2022-09-27T16:47:26;9.40;99.90
13470;DHT22;6807;48.682;9.032;2022-09-27T16:50:02;9.30;99.90
13470;DHT22;6807;48.682;9.032;2022-09-27T16:52:47;9.30;99.90
13470;DHT22;6807;48.682;9.032;2022-09-27T16:55:15;9.10;99.90
13470;DHT22;6807;48.682;9.032;2022-09-27T16:57:49;9.10;99.90
13470;DHT22;6807;48.682;9.032;2022-09-27T17:00:18;9.10;99.90
13470;DHT22;6807;48.682;9.032;2022-09-27T17:02:47;9.00;99.90
13470;DHT22;6807;48.682;9.032;2022-09-27T17:05:14;9.00;99.90
13470;DHT22;6807;48.682;9.032;2022-09-27T17:07:42;9.00;99.90
13470;DHT22;6807;48.682;9.032;2022-09-27T17:10:10;8.90;99.90
13470;DHT22;6807;48.682;9.032;2022-09-27T17:12:38;8.90;99.90
13470;DHT22;6807;48.682;9.032;2022-09-27T17:15:06;8.90;99.90
13470;DHT22;6807;48.682;9.032;2022-09-27T17:17:35;8.90;99.90
13470;DHT22;6807;48.682;9.032;2022-09-27T17:20:04;8.90;99.90
13470;DHT22;6807;48.682;9.032;2022-09-27T17:22:32;8.80;99.90
13470;DHT22;6807;48.682;9.032;2022-09-27T17:25:06;8.80;99.90
13470;DHT22;6807;48.682;9.032;2022-09-27T17:27:33;8.80;99.90
13470;DHT22;6807;48.682;9.032;2022-09-27T17:30:00;8.70;99.90
13470;DHT22;6807;48.682;9.032;2022-09-27T17:32:29;8.70;99.90
13470;DHT22;6807;48.682;9.032;2022-09-27T17:34:57;8.70;99.90
13470;DHT22;6807;48.682;9.032;2022-09-27T17:38:02;8.60;99.90
13470;DHT22;6807;48.682;9.032;2022-09-27T17:40:30;8.70;99.90
13470;DHT22;6807;48.682;9.032;2022-09-27T17:43:03;8.50;99.90
13470;DHT22;6807;48.682;9.032;2022-09-27T17:45:33;8.50;99.90
13470;DHT22;6807;48.682;9.032;2022-09-27T17:48:09;8.50;99.90
13470;DHT22;6807;48.682;9.032;2022-09-27T17:50:54;8.40;99.90
13470;DHT22;6807;48.682;9.032;2022-09-27T17:53:44;8.40;99.90
13470;DHT22;6807;48.682;9.032;2022-09-27T17:56:18;8.20;99.90
13470;DHT22;6807;48.682;9.032;2022-09-27T17:58:48;8.20;99.90
13470;DHT22;6807;48.682;9.032;2022-09-27T18:01:31;8.20;99.90
13470;DHT22;6807;48.682;9.032;2022-09-27T18:03:59;8.10;99.90
13470;DHT22;6807;48.682;9.032;2022-09-27T18:06:29;8.10;99.90
13470;DHT22;6807;48.682;9.032;2022-09-27T18:09:21;8.10;99.90
13470;DHT22;6807;48.682;9.032;2022-09-27T18:11:54;8.00;99.90
13470;DHT22;6807;48.682;9.032;2022-09-27T18:14:24;8.00;99.90
13470;DHT22;6807;48.682;9.032;2022-09-27T18:16:51;7.90;99.90
13470;DHT22;6807;48.682;9.032;2022-09-27T18:19:35;7.80;99.90
13470;DHT22;6807;48.682;9.032;2022-09-27T18:22:02;7.70;99.90
13470;DHT22;6807;48.682;9.032;2022-09-27T18:24:36;7.90;99.90
13470;DHT22;6807;48.682;9.032;2022-09-27T18:27:07;7.60;99.90
13470;DHT22;6807;48.682;9.032;2022-09-27T18:29:36;7.50;99.90
13470;DHT22;6807;48.682;9.032;2022-09-27T18:32:14;7.50;99.90
13470;DHT22;6807;48.682;9.032;2022-09-27T18:34:45;7.50;99.90
13470;DHT22;6807;48.682;9.032;2022-09-27T18:37:12;7.50;99.90
13470;DHT22;6807;48.682;9.032;2022-09-27T18:39:40;7.50;99.90
13470;DHT22;6807;48.682;9.032;2022-09-27T18:42:08;7.40;99.90
13470;DHT22;6807;48.682;9.032;2022-09-27T18:44:35;7.40;99.90
13470;DHT22;6807;48.682;9.032;2022-09-27T18:47:02;7.40;99.90
13470;DHT22;6807;48.682;9.032;2022-09-27T18:49:31;7.40;99.90
13470;DHT22;6807;48.682;9.032;2022-09-27T18:51:59;7.40;99.90
13470;DHT22;6807;48.682;9.032;2022-09-27T18:54:28;7.30;99.90
13470;DHT22;6807;48.682;9.032;2022-09-27T18:56:56;7.30;99.90
13470;DHT22;6807;48.682;9.032;2022-09-27T18:59:23;7.30;99.90
13470;DHT22;6807;48.682;9.032;2022-09-27T19:01:51;7.50;99.90
13470;DHT22;6807;48.682;9.032;2022-09-27T19:04:22;7.10;99.90
13470;DHT22;6807;48.682;9.032;2022-09-27T19:06:55;7.10;99.90
13470;DHT22;6807;48.682;9.032;2022-09-27T19:09:24;7.00;99.90
13470;DHT22;6807;48.682;9.032;2022-09-27T19:11:58;7.10;99.90
13470;DHT22;6807;48.682;9.032;2022-09-27T19:14:26;7.10;99.90
13470;DHT22;6807;48.682;9.032;2022-09-27T19:16:54;6.80;99.90
13470;DHT22;6807;48.682;9.032;2022-09-27T19:19:21;6.70;99.90
13470;DHT22;6807;48.682;9.032;2022-09-27T19:21:48;9.00;99.90
13470;DHT22;6807;48.682;9.032;2022-09-27T19:24:16;6.60;99.90
13470;DHT22;6807;48.682;9.032;2022-09-27T19:26:43;6.60;99.90
13470;DHT22;6807;48.682;9.032;2022-09-27T19:29:13;6.50;99.90
13470;DHT22;6807;48.682;9.032;2022-09-27T19:31:42;6.50;99.90
13470;DHT22;6807;48.682;9.032;2022-09-27T19:34:10;6.40;99.90
13470;DHT22;6807;48.682;9.032;2022-09-27T19:36:45;6.40;99.90
13470;DHT22;6807;48.682;9.032;2022-09-27T19:39:12;6.40;99.90
13470;DHT22;6807;48.682;9.032;2022-09-27T19:41:39;6.30;99.90
13470;DHT22;6807;48.682;9.032;2022-09-27T19:44:08;6.30;99.90
13470;DHT22;6807;48.682;9.032;2022-09-27T19:46:36;6.20;99.90
13470;DHT22;6807;48.682;9.032;2022-09-27T19:49:05;6.20;99.90
13470;DHT22;6807;48.682;9.032;2022-09-27T19:51:32;6.10;99.90
13470;DHT22;6807;48.682;9.032;2022-09-27T19:53:59;6.10;99.90
13470;DHT22;6807;48.682;9.032;2022-09-27T19:56:29;9.00;99.90
13470;DHT22;6807;48.682;9.032;2022-09-27T19:59:10;6.10;99.90
13470;DHT22;6807;48.682;9.032;2022-09-27T20:01:38;6.10;99.90
13470;DHT22;6807;48.682;9.032;2022-09-27T20:04:09;6.10;99.90
13470;DHT22;6807;48.682;9.032;2022-09-27T20:06:36;6.20;99.90
13470;DHT22;6807;48.682;9.032;2022-09-27T20:09:03;6.20;99.90
13470;DHT22;6807;48.682;9.032;2022-09-27T20:11:30;6.20;99.90
13470;DHT22;6807;48.682;9.032;2022-09-27T20:14:04;6.20;99.90
13470;DHT22;6807;48.682;9.032;2022-09-27T20:16:31;6.10;99.90
13470;DHT22;6807;48.682;9.032;2022-09-27T20:19:02;6.20;99.90
13470;DHT22;6807;48.682;9.032;2022-09-27T20:21:31;6.20;99.90
13470;DHT22;6807;48.682;9.032;2022-09-27T20:24:01;6.20;99.90
13470;DHT22;6807;48.682;9.032;2022-09-27T20:26:30;6.10;99.90
13470;DHT22;6807;48.682;9.032;2022-09-27T20:29:00;6.00;99.90
13470;DHT22;6807;48.682;9.032;2022-09-27T20:31:31;6.00;99.90
13470;DHT22;6807;48.682;9.032;2022-09-27T20:34:04;6.00;99.90
13470;DHT22;6807;48.682;9.032;2022-09-27T20:36:35;5.90;99.90
13470;DHT22;6807;48.682;9.032;2022-09-27T20:39:12;5.90;99.90
13470;DHT22;6807;48.682;9.032;2022-09-27T20:41:42;6.00;99.90
13470;DHT22;6807;48.682;9.032;2022-09-27T20:44:18;6.10;99.90
13470;DHT22;6807;48.682;9.032;2022-09-27T20:46:46;6.10;99.90
13470;DHT22;6807;48.682;9.032;2022-09-27T20:49:16;6.10;99.90
13470;DHT22;6807;48.682;9.032;2022-09-27T20:51:45;6.10;99.90
13470;DHT22;6807;48.682;9.032;2022-09-27T20:54:14;6.10;99.90
13470;DHT22;6807;48.682;9.032;2022-09-27T20:56:44;6.10;99.90
13470;DHT22;6807;48.682;9.032;2022-09-27T20:59:14;6.20;99.90
13470;DHT22;6807;48.682;9.032;2022-09-27T21:01:45;6.30;99.90
13470;DHT22;6807;48.682;9.032;2022-09-27T21:07:23;6.50;99.90
13470;DHT22;6807;48.682;9.032;2022-09-27T21:10:04;6.50;99.90
13470;DHT22;6807;48.682;9.032;2022-09-27T21:12:31;6.50;99.90
13470;DHT22;6807;48.682;9.032;2022-09-27T21:15:00;6.50;99.90
13470;DHT22;6807;48.682;9.032;2022-09-27T21:17:28;6.60;99.90
13470;DHT22;6807;48.682;9.032;2022-09-27T21:22:51;6.70;99.90
13470;DHT22;6807;48.682;9.032;2022-09-27T21:25:19;6.70;99.90
13470;DHT22;6807;48.682;9.032;2022-09-27T21:27:46;6.80;99.90
13470;DHT22;6807;48.682;9.032;2022-09-27T21:30:13;6.80;99.90
13470;DHT22;6807;48.682;9.032;2022-09-27T21:32:40;6.90;99.90
13470;DHT22;6807;48.682;9.032;2022-09-27T21:35:08;6.90;99.90
13470;DHT22;6807;48.682;9.032;2022-09-27T21:42:40;7.00;99.90
13470;DHT22;6807;48.682;9.032;2022-09-27T21:45:12;7.00;99.90
13470;DHT22;6807;48.682;9.032;2022-09-27T21:47:40;7.30;99.90
13470;DHT22;6807;48.682;9.032;2022-09-27T21:50:15;7.60;99.90
13470;DHT22;6807;48.682;9.032;2022-09-27T21:52:43;7.70;99.90
13470;DHT22;6807;48.682;9.032;2022-09-27T21:55:15;7.30;99.90
13470;DHT22;6807;48.682;9.032;2022-09-27T21:58:03;9.40;99.90
13470;DHT22;6807;48.682;9.032;2022-09-27T22:00:35;7.30;99.90
13470;DHT22;6807;48.682;9.032;2022-09-27T22:03:05;7.30;99.90
13470;DHT22;6807;48.682;9.032;2022-09-27T22:05:33;7.30;99.90
13470;DHT22;6807;48.682;9.032;2022-09-27T22:11:46;8.20;99.90
13470;DHT22;6807;48.682;9.032;2022-09-27T22:14:44;7.30;99.90
13470;DHT22;6807;48.682;9.032;2022-09-27T22:17:36;7.20;99.90
13470;DHT22;6807;48.682;9.032;2022-09-27T22:20:06;7.30;99.90
13470;DHT22;6807;48.682;9.032;2022-09-27T22:22:36;7.30;99.90
13470;DHT22;6807;48.682;9.032;2022-09-27T22:25:28;7.50;99.90
13470;DHT22;6807;48.682;9.032;2022-09-27T22:28:38;6.40;99.90
13470;DHT22;6807;48.682;9.032;2022-09-27T22:34:37;8.30;99.90
13470;DHT22;6807;48.682;9.032;2022-09-27T22:37:13;7.10;99.90
13470;DHT22;6807;48.682;9.032;2022-09-27T22:39:58;7.30;99.90
13470;DHT22;6807;48.682;9.032;2022-09-27T22:46:03;7.40;99.90
13470;DHT22;6807;48.682;9.032;2022-09-27T22:48:51;5.50;99.90
13470;DHT22;6807;48.682;9.032;2022-09-27T22:51:31;7.50;99.90
13470;DHT22;6807;48.682;9.032;2022-09-27T22:54:00;7.40;99.90
13470;DHT22;6807;48.682;9.032;2022-09-27T22:56:32;7.30;99.90
13470;DHT22;6807;48.682;9.032;2022-09-27T22:59:27;7.20;99.90
13470;DHT22;6807;48.682;9.032;2022-09-27T23:02:11;7.20;99.90
13470;DHT22;6807;48.682;9.032;2022-09-27T23:04:47;7.30;99.90
13470;DHT22;6807;48.682;9.032;2022-09-27T23:07:17;6.70;99.90
13470;DHT22;6807;48.682;9.032;2022-09-27T23:10:06;7.10;99.90
13470;DHT22;6807;48.682;9.032;2022-09-27T23:13:22;7.00;99.90
13470;DHT22;6807;48.682;9.032;2022-09-27T23:16:06;5.40;99.90
13470;DHT22;6807;48.682;9.032;2022-09-27T23:19:08;7.40;99.90
13470;DHT22;6807;48.682;9.032;2022-09-27T23:21:49;7.60;99.90
13470;DHT22;6807;48.682;9.032;2022-09-27T23:24:24;7.50;99.90
13470;DHT22;6807;48.682;9.032;2022-09-27T23:27:38;7.30;99.90
13470;DHT22;6807;48.682;9.032;2022-09-27T23:30:53;7.30;99.90
13470;DHT22;6807;48.682;9.032;2022-09-27T23:33:44;7.40;99.90
13470;DHT22;6807;48.682;9.032;2022-09-27T23:36:35;6.10;99.90
13470;DHT22;6807;48.682;9.032;2022-09-27T23:39:30;7.50;99.90
13470;DHT22;6807;48.682;9.032;2022-09-27T23:42:29;7.20;99.90
13470;DHT22;6807;48.682;9.032;2022-09-27T23:45:25;7.50;99.90
13470;DHT22;6807;48.682;9.032;2022-09-27T23:47:58;7.40;99.90
13470;DHT22;6807;48.682;9.032;2022-09-27T23:50:29;6.90;99.90
13470;DHT22;6807;48.682;9.032;2022-09-27T23:53:22;9.50;99.90
13470;DHT22;6807;48.682;9.032;2022-09-27T23:56:14;7.50;99.90
13470;DHT22;6807;48.682;9.032;2022-09-27T23:59:08;5.60;99.90
